createdAt,value
2022-08-17T05:06:47.697Z,1540.00
2022-08-17T05:07:47.692Z,1540.00
2022-08-17T05:08:47.671Z,1548.00
2022-08-17T05:09:47.658Z,1556.00
2022-08-17T05:10:47.641Z,1572.00
2022-08-17T05:11:47.638Z,1596.00
2022-08-17T05:12:47.631Z,1640.00
2022-08-17T05:13:47.620Z,1696.00
2022-08-17T05:14:47.600Z,1772.00
2022-08-17T05:15:48.015Z,1868.00
2022-08-17T05:16:47.582Z,1980.00
2022-08-17T05:17:47.582Z,2108.00
2022-08-17T05:18:47.552Z,2244.00
2022-08-17T05:19:51.759Z,2384.00
2022-08-17T05:20:47.542Z,2524.00
2022-08-17T05:21:47.522Z,2652.00
2022-08-17T05:22:47.524Z,2784.00
2022-08-17T05:23:50.358Z,2908.00
2022-08-17T05:24:53.738Z,3028.00
2022-08-17T05:25:48.484Z,3152.00
2022-08-17T05:26:47.515Z,3260.00
2022-08-17T05:27:47.476Z,3360.00
2022-08-17T05:28:47.454Z,3456.00
2022-08-17T05:29:47.448Z,3564.00
2022-08-17T05:30:49.277Z,3672.00
2022-08-17T05:31:47.425Z,3784.00
2022-08-17T05:32:47.409Z,3892.00
2022-08-17T05:33:47.436Z,3996.00
2022-08-17T05:34:47.387Z,4104.00
2022-08-17T05:35:47.369Z,4220.00
2022-08-17T05:36:47.358Z,4344.00
2022-08-17T05:37:47.351Z,4492.00
2022-08-17T05:38:47.359Z,4656.00
2022-08-17T05:39:47.370Z,4828.00
2022-08-17T05:40:47.335Z,5004.00
2022-08-17T05:41:47.315Z,5156.00
2022-08-17T05:42:47.293Z,5276.00
2022-08-17T05:43:47.293Z,5364.00
2022-08-17T05:44:47.271Z,5428.00
2022-08-17T05:45:55.305Z,5472.00
2022-08-17T05:46:48.251Z,5520.00
2022-08-17T05:47:47.243Z,5592.00
2022-08-17T05:48:47.234Z,5688.00
2022-08-17T05:49:49.030Z,5812.00
2022-08-17T05:50:47.204Z,5932.00
2022-08-17T05:51:47.193Z,6036.00
2022-08-17T05:52:47.225Z,6112.00
2022-08-17T05:53:47.222Z,6160.00
2022-08-17T05:54:47.153Z,6196.00
2022-08-17T05:55:47.164Z,6220.00
2022-08-17T05:56:47.140Z,6248.00
2022-08-17T05:57:53.865Z,6320.00
2022-08-17T05:58:48.175Z,6384.00
2022-08-17T05:59:47.128Z,6444.00
2022-08-17T06:00:47.116Z,6576.00
2022-08-17T06:01:47.112Z,6764.00
2022-08-17T06:02:48.040Z,6912.00
2022-08-17T06:03:47.080Z,7060.00
2022-08-17T06:04:47.048Z,7120.00
2022-08-17T06:05:47.081Z,7224.00
2022-08-17T06:06:47.030Z,7352.00
2022-08-17T06:07:47.019Z,7508.00
2022-08-17T06:08:47.082Z,7684.00
2022-08-17T06:09:46.999Z,7852.00
2022-08-17T06:10:46.999Z,8004.00
2022-08-17T06:11:47.069Z,8136.00
2022-08-17T06:12:47.965Z,8252.00
2022-08-17T06:13:46.980Z,8364.00
2022-08-17T06:14:47.011Z,8508.00
2022-08-17T06:15:46.933Z,8704.00
2022-08-17T06:16:47.053Z,8912.00
2022-08-17T06:17:46.935Z,9140.00
2022-08-17T06:18:46.903Z,9384.00
2022-08-17T06:19:46.895Z,9708.00
2022-08-17T06:20:46.882Z,10100.00
2022-08-17T06:21:46.872Z,10572.00
2022-08-17T06:22:46.893Z,11148.00
2022-08-17T06:23:46.968Z,11792.00
2022-08-17T06:24:46.836Z,12492.00
2022-08-17T06:25:46.829Z,13220.00
2022-08-17T06:26:46.816Z,13912.00
2022-08-17T06:27:46.809Z,14596.00
2022-08-17T06:28:46.798Z,15308.00
2022-08-17T06:29:46.798Z,15896.00
2022-08-17T07:01:06.897Z,16768.00
2022-08-17T07:02:06.756Z,17312.00
2022-08-17T07:03:07.090Z,18048.00
2022-08-17T07:04:11.872Z,19168.00
2022-08-17T07:05:07.704Z,20160.00
2022-08-17T07:06:06.846Z,21216.00
2022-08-17T07:07:06.683Z,22336.00
2022-08-17T07:08:06.753Z,22720.00
2022-08-17T07:09:06.674Z,22336.00
2022-08-17T07:10:06.686Z,21696.00
2022-08-17T07:11:06.647Z,20960.00
2022-08-17T07:12:06.686Z,20384.00
2022-08-17T07:13:06.639Z,20032.00
2022-08-17T07:14:06.615Z,20000.00
2022-08-17T07:15:06.609Z,20032.00
2022-08-17T07:16:06.859Z,20192.00
2022-08-17T07:17:06.577Z,20256.00
2022-08-17T07:18:06.617Z,20192.00
2022-08-17T07:19:06.558Z,20352.00
2022-08-17T07:20:06.587Z,23008.00
2022-08-17T07:21:06.530Z,24480.00
2022-08-17T07:22:06.544Z,21152.00
2022-08-17T07:23:06.521Z,21632.00
2022-08-17T07:24:06.530Z,25024.00
2022-08-17T07:25:06.510Z,25888.00
2022-08-17T07:26:06.577Z,32768.00
2022-08-17T07:27:06.494Z,39136.00
2022-08-17T07:28:07.136Z,27872.00
2022-08-17T07:29:06.495Z,24928.00
2022-08-17T07:30:10.273Z,22272.00
2022-08-17T07:31:06.441Z,20576.00
2022-08-17T07:32:06.444Z,18624.00
2022-08-17T07:33:06.426Z,16640.00
2022-08-17T07:34:06.447Z,15080.00
2022-08-17T07:35:06.397Z,14044.00
2022-08-17T07:36:06.406Z,13468.00
2022-08-17T07:37:06.377Z,13364.00
2022-08-17T07:38:06.375Z,13724.00
2022-08-17T07:39:07.368Z,17888.00
2022-08-17T07:40:16.013Z,15580.00
2022-08-17T07:41:07.324Z,16768.00
2022-08-17T07:42:06.380Z,19040.00
2022-08-17T07:43:06.300Z,19040.00
2022-08-17T07:44:06.401Z,19296.00
2022-08-17T07:45:06.281Z,19616.00
2022-08-17T07:46:06.272Z,20000.00
2022-08-17T07:47:06.252Z,20384.00
2022-08-17T07:48:06.281Z,20800.00
2022-08-17T07:49:06.242Z,21184.00
2022-08-17T07:50:06.288Z,21184.00
2022-08-17T07:51:06.214Z,21152.00
2022-08-17T07:52:24.279Z,21024.00
2022-08-17T07:53:07.191Z,21312.00
2022-08-17T07:54:14.471Z,20896.00
2022-08-17T07:55:07.168Z,18208.00
2022-08-17T07:56:06.185Z,16248.00
2022-08-17T07:57:06.156Z,14748.00
2022-08-17T07:58:06.135Z,13800.00
2022-08-17T07:59:06.137Z,12896.00
2022-08-17T08:00:06.166Z,12168.00
2022-08-17T08:01:07.110Z,11528.00
2022-08-17T08:02:06.305Z,11068.00
2022-08-17T08:03:06.087Z,10984.00
2022-08-17T08:04:06.191Z,11164.00
2022-08-17T08:05:08.773Z,11292.00
2022-08-17T08:06:06.119Z,11236.00
2022-08-17T08:07:06.040Z,11016.00
2022-08-17T08:08:06.106Z,10656.00
2022-08-17T08:09:06.031Z,10200.00
2022-08-17T08:10:06.012Z,9740.00
2022-08-17T08:11:06.013Z,9336.00
2022-08-17T08:12:06.031Z,9028.00
2022-08-17T08:13:06.972Z,8784.00
2022-08-17T08:14:06.017Z,8588.00
2022-08-17T08:15:05.956Z,8380.00
2022-08-17T08:16:05.969Z,8128.00
2022-08-17T08:17:05.944Z,7916.00
2022-08-17T08:18:05.943Z,7784.00
2022-08-17T08:19:05.924Z,7688.00
2022-08-17T08:20:42.455Z,7556.00
2022-08-17T08:21:06.885Z,7368.00
2022-08-17T08:22:05.937Z,7204.00
2022-08-17T08:23:05.876Z,7012.00
2022-08-17T08:24:05.877Z,6832.00
2022-08-17T08:25:05.850Z,6632.00
2022-08-17T08:26:05.950Z,6352.00
2022-08-17T08:27:05.829Z,5948.00
2022-08-17T08:28:05.920Z,5464.00
2022-08-17T08:29:05.932Z,4992.00
2022-08-17T08:30:05.803Z,4640.00
2022-08-17T08:31:05.790Z,4416.00
2022-08-17T08:32:05.782Z,4392.00
2022-08-17T08:33:05.761Z,4588.00
2022-08-17T08:34:05.802Z,4972.00
2022-08-17T08:35:05.742Z,5456.00
2022-08-17T08:36:05.754Z,5824.00
2022-08-17T08:37:17.151Z,5956.00
2022-08-17T08:38:06.760Z,5920.00
2022-08-17T08:39:05.711Z,5816.00
2022-08-17T08:40:05.763Z,5748.00
2022-08-17T08:41:05.684Z,5720.00
2022-08-17T08:42:05.676Z,5704.00
2022-08-17T08:43:05.664Z,5656.00
2022-08-17T08:44:05.695Z,5580.00
2022-08-17T08:45:05.755Z,5548.00
2022-08-17T08:46:05.646Z,5604.00
2022-08-17T08:47:05.615Z,5728.00
2022-08-17T08:48:05.905Z,5892.00
2022-08-17T08:49:12.122Z,6004.00
2022-08-17T08:50:06.800Z,6040.00
2022-08-17T08:51:05.568Z,6088.00
2022-08-17T08:52:05.599Z,6220.00
2022-08-17T08:53:06.046Z,6448.00
2022-08-17T08:54:05.576Z,6688.00
2022-08-17T08:55:05.532Z,6764.00
2022-08-17T08:56:05.541Z,6636.00
2022-08-17T08:57:24.483Z,6512.00
2022-08-17T08:58:06.555Z,6368.00
2022-08-17T08:59:05.501Z,6132.00
2022-08-17T09:00:05.506Z,5876.00
2022-08-17T09:01:05.543Z,5756.00
2022-08-17T09:02:05.462Z,5792.00
2022-08-17T09:03:05.442Z,6012.00
2022-08-17T09:04:23.371Z,6460.00
2022-08-17T09:05:14.984Z,7060.00
2022-08-17T09:06:06.444Z,7604.00
2022-08-17T09:07:06.416Z,7964.00
2022-08-17T09:08:05.418Z,8108.00
2022-08-17T09:09:05.397Z,8252.00
2022-08-17T09:10:05.377Z,8748.00
2022-08-17T09:11:05.366Z,9292.00
2022-08-17T09:12:05.359Z,9572.00
2022-08-17T09:13:09.922Z,9368.00
2022-08-17T09:14:06.430Z,8784.00
2022-08-17T09:15:10.857Z,8252.00
2022-08-17T09:16:06.379Z,7800.00
2022-08-17T09:17:05.298Z,7424.00
2022-08-17T09:19:03.059Z,7072.00
2022-08-17T09:19:06.503Z,6756.00
2022-08-17T09:20:05.260Z,6640.00
2022-08-17T09:21:05.262Z,6736.00
2022-08-17T09:22:05.241Z,6516.00
2022-08-17T09:23:05.232Z,5860.00
2022-08-17T09:24:05.265Z,5060.00
2022-08-17T09:25:05.212Z,4740.00
2022-08-17T09:26:05.242Z,4884.00
2022-08-17T09:27:05.204Z,5144.00
2022-08-17T09:28:05.197Z,5288.00
2022-08-17T09:29:05.185Z,5444.00
2022-08-17T09:30:05.156Z,5740.00
2022-08-17T09:31:05.143Z,6492.00
2022-08-17T09:32:05.174Z,7616.00
2022-08-17T09:33:05.137Z,8588.00
2022-08-17T09:34:05.155Z,8888.00
2022-08-17T09:35:05.114Z,8340.00
2022-08-17T09:36:05.105Z,7640.00
2022-08-17T09:37:05.188Z,7244.00
2022-08-17T09:38:05.179Z,7028.00
2022-08-17T09:39:05.066Z,7188.00
2022-08-17T09:40:05.121Z,7588.00
2022-08-17T09:41:05.047Z,8192.00
2022-08-17T09:42:05.042Z,9004.00
2022-08-17T09:43:05.024Z,9888.00
2022-08-17T09:44:05.010Z,10724.00
2022-08-17T09:45:05.019Z,11736.00
2022-08-17T09:46:05.018Z,13276.00
2022-08-17T09:47:04.990Z,15076.00
2022-08-17T09:48:05.021Z,16960.00
2022-08-17T09:49:04.972Z,19168.00
2022-08-17T09:50:04.971Z,21600.00
2022-08-17T09:51:06.493Z,23936.00
2022-08-17T09:52:04.943Z,27072.00
2022-08-17T09:53:04.923Z,31040.00
2022-08-17T09:54:35.194Z,41728.00
2022-08-17T09:55:05.904Z,40832.00
2022-08-17T09:56:04.924Z,42912.00
2022-08-17T09:57:27.887Z,43904.00
2022-08-17T09:58:05.895Z,47104.00
2022-08-17T09:59:04.855Z,43168.00
2022-08-17T10:00:04.867Z,38976.00
2022-08-17T10:01:04.881Z,34848.00
2022-08-17T10:02:04.823Z,31456.00
2022-08-17T10:03:04.817Z,28640.00
2022-08-17T10:04:04.816Z,26048.00
2022-08-17T10:05:04.808Z,23936.00
2022-08-17T10:06:06.525Z,22304.00
2022-08-17T10:07:04.773Z,21280.00
2022-08-17T10:08:04.762Z,20896.00
2022-08-17T10:09:04.749Z,21312.00
2022-08-17T10:10:04.753Z,22432.00
2022-08-17T10:11:04.728Z,24000.00
2022-08-17T10:12:04.731Z,25408.00
2022-08-17T10:13:04.701Z,26048.00
2022-08-17T10:14:12.509Z,26848.00
2022-08-17T10:15:08.109Z,27008.00
2022-08-17T10:16:04.718Z,27712.00
2022-08-17T10:17:04.655Z,27968.00
2022-08-17T10:18:04.676Z,27744.00
2022-08-17T10:19:04.643Z,27744.00
2022-08-17T10:20:04.664Z,28480.00
2022-08-17T10:21:04.656Z,29984.00
2022-08-17T10:22:15.008Z,32192.00
2022-08-17T10:23:05.614Z,35072.00
2022-08-17T10:24:04.621Z,38400.00
2022-08-17T10:25:23.403Z,40736.00
2022-08-17T10:26:05.588Z,43520.00
2022-08-17T10:27:04.557Z,46624.00
2022-08-17T10:28:04.565Z,48992.00
2022-08-17T10:29:04.544Z,53600.00
2022-08-17T10:30:04.689Z,71840.00
2022-08-17T10:31:32.970Z,124096.00
2022-08-17T10:32:05.500Z,129600.00
2022-08-17T10:33:04.490Z,110240.00
2022-08-17T10:34:04.824Z,95872.00
2022-08-17T10:35:04.480Z,76544.00
2022-08-17T10:36:08.792Z,87616.00
2022-08-17T10:37:05.442Z,114528.00
2022-08-17T10:38:04.441Z,111872.00
2022-08-17T10:39:04.449Z,119168.00
2022-08-17T10:40:04.494Z,109568.00
2022-08-17T10:41:04.403Z,108032.00
2022-08-17T10:42:04.442Z,112480.00
2022-08-17T10:43:04.388Z,107712.00
2022-08-17T10:44:39.756Z,83520.00
2022-08-17T10:45:05.389Z,77984.00
2022-08-17T10:46:09.532Z,99200.00
2022-08-17T10:47:05.349Z,113120.00
2022-08-17T10:48:06.523Z,57280.00
2022-08-17T10:49:04.348Z,53056.00
2022-08-17T10:50:04.417Z,60736.00
2022-08-17T10:51:04.318Z,53120.00
2022-08-17T10:52:04.354Z,47168.00
2022-08-17T10:53:04.310Z,47616.00
2022-08-17T10:54:04.344Z,46304.00
2022-08-17T10:55:04.282Z,44928.00
2022-08-17T10:56:04.282Z,42848.00
2022-08-17T10:57:04.265Z,40032.00
2022-08-17T10:58:04.306Z,38368.00
2022-08-17T10:59:04.247Z,36576.00
2022-08-17T11:00:04.304Z,34976.00
2022-08-17T11:01:04.276Z,33920.00
2022-08-17T11:02:04.618Z,34048.00
2022-08-17T11:03:04.196Z,33280.00
2022-08-17T11:04:04.240Z,33184.00
2022-08-17T11:05:04.210Z,33376.00
2022-08-17T11:06:04.198Z,33760.00
2022-08-17T11:07:04.148Z,41728.00
2022-08-17T11:08:04.149Z,36704.00
2022-08-17T11:09:04.136Z,39456.00
2022-08-17T11:10:04.146Z,42528.00
2022-08-17T11:11:04.140Z,66944.00
2022-08-17T11:12:04.121Z,54240.00
2022-08-17T11:13:04.090Z,58304.00
2022-08-17T11:14:04.089Z,65120.00
2022-08-17T11:15:04.083Z,63264.00
2022-08-17T11:16:08.282Z,67616.00
2022-08-17T11:17:04.053Z,69792.00
2022-08-17T11:18:04.080Z,76672.00
2022-08-17T11:19:04.030Z,82752.00
2022-08-17T11:20:04.043Z,93408.00
2022-08-17T11:21:04.013Z,75488.00
2022-08-17T11:22:04.024Z,95776.00
2022-08-17T11:23:03.995Z,63328.00
2022-08-17T13:15:46.236Z,70464.00
2022-08-17T13:16:46.282Z,40800.00
2022-08-17T13:17:46.204Z,45376.00
2022-08-17T13:18:46.267Z,87264.00
2022-08-17T13:19:46.139Z,66208.00
2022-08-17T13:20:46.127Z,85024.00
2022-08-17T13:21:46.113Z,88832.00
2022-08-17T13:22:46.108Z,93504.00
2022-08-17T13:23:53.495Z,90464.00
2022-08-17T13:24:47.110Z,86752.00
2022-08-17T13:25:46.081Z,82656.00
2022-08-17T13:26:46.071Z,79712.00
2022-08-17T13:27:46.123Z,79840.00
2022-08-17T13:28:46.053Z,45536.00
2022-08-17T13:29:51.608Z,69856.00
2022-08-17T13:30:47.024Z,43872.00
2022-08-17T13:31:51.926Z,64256.00
2022-08-17T13:32:47.096Z,76672.00
2022-08-17T13:33:45.995Z,88800.00
2022-08-17T13:35:07.747Z,82048.00
2022-08-17T13:35:50.439Z,84192.00
2022-08-17T13:36:45.977Z,89504.00
2022-08-17T13:37:46.003Z,88352.00
2022-08-17T13:38:45.979Z,58816.00
2022-08-17T13:39:46.054Z,60864.00
2022-08-17T13:40:45.937Z,76032.00
2022-08-17T13:41:45.929Z,45472.00
2022-08-17T13:42:50.425Z,41280.00
2022-08-17T13:43:46.939Z,34528.00
2022-08-17T13:44:45.918Z,35520.00
2022-08-17T13:45:45.891Z,36576.00
2022-08-17T13:46:46.888Z,38272.00
2022-08-17T13:47:46.925Z,33664.00
2022-08-17T13:48:45.899Z,34464.00
2022-08-17T13:49:48.937Z,68416.00
2022-08-17T13:50:45.894Z,37856.00
2022-08-17T13:51:45.845Z,28512.00
2022-08-17T13:52:48.871Z,29312.00
2022-08-17T13:53:46.815Z,34432.00
2022-08-17T13:54:45.822Z,62560.00
2022-08-17T13:55:45.836Z,39232.00
2022-08-17T13:56:45.806Z,42944.00
2022-08-17T13:57:45.817Z,42912.00
2022-08-17T13:58:45.835Z,57984.00
2022-08-17T13:59:53.062Z,41408.00
2022-08-17T14:00:46.764Z,41792.00
2022-08-17T14:01:49.689Z,42208.00
2022-08-17T14:02:46.731Z,73248.00
2022-08-17T14:03:45.761Z,41600.00
2022-08-17T14:04:46.732Z,38144.00
2022-08-17T14:05:45.717Z,30528.00
2022-08-17T14:06:51.868Z,28064.00
2022-08-17T14:07:46.700Z,27680.00
2022-08-17T14:08:45.672Z,29088.00
2022-08-17T14:09:45.663Z,30624.00
2022-08-17T14:10:45.655Z,35808.00
2022-08-17T14:11:45.636Z,36000.00
2022-08-17T14:12:45.630Z,35328.00
2022-08-17T14:13:45.617Z,34496.00
2022-08-17T14:14:45.618Z,27552.00
2022-08-17T14:15:55.039Z,22144.00
2022-08-17T14:16:46.589Z,18656.00
2022-08-17T14:17:45.579Z,16960.00
2022-08-17T14:18:55.892Z,15628.00
2022-08-17T14:19:46.570Z,15052.00
2022-08-17T14:20:45.540Z,15180.00
2022-08-17T14:21:45.529Z,15440.00
2022-08-17T14:22:45.535Z,16864.00
2022-08-17T14:23:48.994Z,16512.00
2022-08-17T14:24:46.502Z,17024.00
2022-08-17T14:25:45.522Z,17856.00
2022-08-17T14:26:45.490Z,19296.00
2022-08-17T14:27:53.028Z,22784.00
2022-08-17T14:28:54.571Z,23008.00
2022-08-17T14:29:46.452Z,24192.00
2022-08-17T14:30:45.453Z,25664.00
2022-08-17T14:31:48.518Z,27744.00
2022-08-17T14:32:46.425Z,27072.00
2022-08-17T14:33:45.415Z,26304.00
2022-08-17T14:34:45.429Z,25568.00
2022-08-17T14:35:45.396Z,24992.00
2022-08-17T14:36:45.386Z,25056.00
2022-08-17T14:37:45.458Z,25600.00
2022-08-17T14:38:45.372Z,27488.00
2022-08-17T14:39:45.418Z,33856.00
2022-08-17T14:40:45.347Z,53632.00
2022-08-17T14:41:45.327Z,45888.00
2022-08-17T14:42:46.017Z,60000.00
2022-08-17T14:43:45.312Z,58592.00
2022-08-17T14:44:45.313Z,55616.00
2022-08-17T14:45:45.283Z,51776.00
2022-08-17T14:46:45.283Z,52352.00
2022-08-17T14:47:45.263Z,34240.00
2022-08-17T14:48:45.256Z,26880.00
2022-08-17T14:49:47.651Z,25472.00
2022-08-17T14:50:45.244Z,26016.00
2022-08-17T14:51:45.235Z,28384.00
2022-08-17T14:52:45.216Z,26720.00
2022-08-17T14:53:45.246Z,26752.00
2022-08-17T14:54:45.896Z,24864.00
2022-08-17T14:55:45.187Z,22080.00
2022-08-17T14:56:45.320Z,20992.00
2022-08-17T14:57:45.256Z,20032.00
2022-08-17T14:58:45.149Z,19712.00
2022-08-17T14:59:45.323Z,21088.00
2022-08-17T15:00:45.129Z,22656.00
2022-08-17T15:01:45.147Z,22720.00
2022-08-17T15:02:45.114Z,23040.00
2022-08-17T15:03:45.113Z,23072.00
2022-08-17T15:04:45.827Z,23648.00
2022-08-17T15:05:45.084Z,24032.00
2022-08-17T15:06:45.122Z,29536.00
2022-08-17T15:07:45.068Z,28448.00
2022-08-17T15:08:45.054Z,22784.00
2022-08-17T15:09:45.053Z,21312.00
2022-08-17T15:10:45.033Z,21280.00
2022-08-17T15:11:45.024Z,20672.00
2022-08-17T15:12:45.022Z,21216.00
2022-08-17T15:13:53.051Z,25984.00
2022-08-17T15:14:45.996Z,30272.00
2022-08-17T15:15:44.977Z,28416.00
2022-08-17T15:16:44.971Z,25696.00
2022-08-17T15:17:45.950Z,22432.00
2022-08-17T15:18:44.937Z,27744.00
2022-08-17T15:19:44.948Z,31296.00
2022-08-17T15:20:44.929Z,22912.00
2022-08-17T15:21:44.919Z,19360.00
2022-08-17T15:22:44.917Z,18656.00
2022-08-17T15:23:44.900Z,16972.00
2022-08-17T15:24:44.890Z,15488.00
2022-08-17T15:25:44.891Z,15224.00
2022-08-17T15:26:44.862Z,15248.00
2022-08-17T15:27:44.926Z,14736.00
2022-08-17T15:28:44.846Z,14188.00
2022-08-17T15:30:36.990Z,13744.00
2022-08-17T15:31:36.960Z,13636.00
2022-08-17T15:32:36.966Z,13456.00
2022-08-17T15:33:36.944Z,13548.00
2022-08-17T15:34:36.953Z,13444.00
2022-08-17T15:35:36.924Z,13604.00
2022-08-17T15:36:37.038Z,14068.00
2022-08-17T15:37:36.973Z,14120.00
2022-08-17T15:38:36.915Z,13296.00
2022-08-17T15:39:36.950Z,13236.00
2022-08-17T15:40:36.981Z,13192.00
2022-08-17T15:41:36.866Z,13252.00
2022-08-17T15:42:36.848Z,13400.00
2022-08-17T15:43:36.849Z,12832.00
2022-08-17T15:44:36.848Z,12784.00
2022-08-17T15:45:36.823Z,12040.00
2022-08-17T15:46:36.820Z,11992.00
2022-08-17T15:47:36.799Z,12876.00
2022-08-17T15:48:36.787Z,12276.00
2022-08-17T15:49:36.790Z,13240.00
2022-08-17T15:50:36.771Z,14600.00
2022-08-17T15:51:36.752Z,15568.00
2022-08-17T15:52:36.750Z,13632.00
2022-08-17T15:53:36.732Z,12784.00
2022-08-17T15:54:36.733Z,12352.00
2022-08-17T15:55:36.717Z,12436.00
2022-08-17T15:56:36.701Z,13980.00
2022-08-17T15:57:36.691Z,13356.00
2022-08-17T15:58:36.683Z,11028.00
2022-08-17T15:59:36.683Z,11064.00
2022-08-17T16:00:49.061Z,11352.00
2022-08-17T16:03:01.492Z,11712.00
2022-08-17T16:03:47.026Z,11888.00
2022-08-17T16:03:59.392Z,11760.00
2022-08-17T16:04:43.937Z,11328.00
2022-08-17T16:05:37.683Z,10776.00
2022-08-17T16:06:36.596Z,10344.00
2022-08-17T16:07:36.598Z,10092.00
2022-08-17T16:08:36.576Z,9944.00
2022-08-17T16:09:36.576Z,9828.00
2022-08-17T16:10:36.549Z,9748.00
2022-08-17T18:02:07.793Z,2760.00
2022-08-17T18:03:07.635Z,2700.00
2022-08-17T18:04:08.308Z,2648.00
2022-08-17T18:05:08.607Z,2588.00
2022-08-17T18:06:07.647Z,2536.00
2022-08-17T18:07:09.947Z,2480.00
2022-08-17T18:08:10.824Z,2424.00
2022-08-17T18:09:07.558Z,2364.00
2022-08-17T18:10:19.551Z,2304.00
2022-08-17T18:11:08.561Z,2248.00
2022-08-17T18:12:07.568Z,2188.00
2022-08-17T18:13:07.524Z,2128.00
2022-08-17T18:14:07.666Z,2064.00
2022-08-17T18:15:07.502Z,2008.00
2022-08-17T18:16:07.491Z,1948.00
2022-08-17T18:17:07.491Z,1888.00
2022-08-17T18:18:07.512Z,1832.00
2022-08-17T18:19:07.451Z,1772.00
2022-08-17T18:20:07.493Z,1712.00
2022-08-17T18:21:07.423Z,1652.00
2022-08-17T18:22:07.422Z,1588.00
2022-08-17T18:23:08.405Z,1524.00
2022-08-17T18:24:07.415Z,1468.00
2022-08-17T18:25:07.394Z,1400.00
2022-08-17T18:26:08.005Z,1340.00
2022-08-17T18:27:08.521Z,1276.00
2022-08-17T18:28:07.596Z,1220.00
2022-08-17T18:29:07.337Z,1164.00
2022-08-17T18:30:09.394Z,1108.00
2022-08-17T18:31:07.312Z,1052.00
2022-08-17T18:32:08.377Z,1000.00
2022-08-17T18:33:07.377Z,940.00
2022-08-17T18:34:18.714Z,880.00
2022-08-17T18:35:08.283Z,820.00
2022-08-17T18:36:07.368Z,764.00
2022-08-17T18:37:07.248Z,708.00
2022-08-17T18:38:07.699Z,656.00
2022-08-17T18:39:07.220Z,608.00
2022-08-17T18:40:07.365Z,568.00
2022-08-17T18:41:07.200Z,528.00
2022-08-17T18:42:07.221Z,496.00
2022-08-17T18:43:08.180Z,464.00
2022-08-17T18:44:07.241Z,424.00
2022-08-17T18:45:07.180Z,392.00
2022-08-17T18:46:07.384Z,360.00
2022-08-17T18:47:07.134Z,328.00
2022-08-17T18:48:07.633Z,300.00
2022-08-17T18:49:07.113Z,276.00
2022-08-17T18:50:07.523Z,248.00
2022-08-17T18:51:07.094Z,224.00
2022-08-17T18:52:07.107Z,204.00
2022-08-17T18:53:07.354Z,180.00
2022-08-17T18:54:07.096Z,160.00
2022-08-17T18:55:07.062Z,148.00
2022-08-17T18:56:07.075Z,128.00
2022-08-17T18:57:07.026Z,116.00
2022-08-17T18:58:07.418Z,104.00
2022-08-17T18:59:07.010Z,92.00
2022-08-17T19:00:07.115Z,80.00
2022-08-17T19:01:06.988Z,72.00
2022-08-17T19:02:12.025Z,64.00
2022-08-17T19:03:08.033Z,56.00
2022-08-17T19:04:07.018Z,48.00
2022-08-17T19:05:06.960Z,40.00
2022-08-17T19:06:07.109Z,36.00
2022-08-17T19:07:06.944Z,28.00
2022-08-17T19:08:07.017Z,28.00
2022-08-17T19:09:06.901Z,20.00
2022-08-17T19:10:06.922Z,20.00
2022-08-17T19:11:06.892Z,16.00
2022-08-17T19:12:06.905Z,16.00
2022-08-17T19:13:12.614Z,12.00
2022-08-17T19:14:07.874Z,8.00
2022-08-17T19:15:06.854Z,8.00
2022-08-17T19:16:12.103Z,8.00
2022-08-17T19:17:07.821Z,8.00
2022-08-17T19:18:09.902Z,4.00
2022-08-17T19:19:07.793Z,4.00
2022-08-17T19:20:06.845Z,4.00
2022-08-17T19:21:06.775Z,0.00
2022-08-17T19:22:06.987Z,4.00
2022-08-17T19:23:06.785Z,4.00
2022-08-17T19:24:06.917Z,0.00
2022-08-17T19:25:09.257Z,0.00
2022-08-17T19:26:06.838Z,0.00
2022-08-17T19:27:07.707Z,0.00
2022-08-17T19:28:15.341Z,0.00
2022-08-17T19:29:07.708Z,0.00
2022-08-17T19:30:08.363Z,0.00
2022-08-17T19:31:06.670Z,0.00
2022-08-17T19:32:06.729Z,0.00
2022-08-17T19:33:06.648Z,0.00
2022-08-17T19:34:06.697Z,0.00
2022-08-17T19:35:06.650Z,0.00
2022-08-17T19:36:06.722Z,0.00
2022-08-17T19:37:06.601Z,0.00
2022-08-17T19:38:12.882Z,0.00
2022-08-17T19:39:07.573Z,0.00
2022-08-17T19:40:06.711Z,0.00
2022-08-17T19:41:06.612Z,0.00
2022-08-17T19:42:06.656Z,0.00
2022-08-17T19:43:06.534Z,0.00
2022-08-17T19:44:06.576Z,0.00
2022-08-17T19:45:06.546Z,0.00
2022-08-17T19:46:06.594Z,0.00
2022-08-17T19:47:06.493Z,0.00
2022-08-17T19:48:06.934Z,0.00
2022-08-17T19:49:06.484Z,0.00
2022-08-17T19:50:06.494Z,0.00
2022-08-17T19:51:06.585Z,0.00
2022-08-17T19:52:06.453Z,0.00
2022-08-17T19:53:06.425Z,0.00
2022-08-17T19:54:07.300Z,0.00
2022-08-17T19:55:06.420Z,0.00
2022-08-17T19:56:06.460Z,0.00
2022-08-17T19:57:06.410Z,0.00
2022-08-17T19:58:06.556Z,0.00
2022-08-17T19:59:06.371Z,0.00
2022-08-17T20:00:06.407Z,0.00
2022-08-17T20:01:06.395Z,0.00
2022-08-17T20:02:06.347Z,0.00
2022-08-17T20:03:06.609Z,0.00
2022-08-17T20:04:06.312Z,0.00
2022-08-17T20:05:06.312Z,0.00
2022-08-17T20:06:13.001Z,0.00
2022-08-17T20:07:07.273Z,0.00
2022-08-17T20:08:06.300Z,0.00
2022-08-17T20:09:06.775Z,0.00
2022-08-17T20:10:06.274Z,0.00
2022-08-17T20:11:06.234Z,0.00
2022-08-17T20:12:06.263Z,0.00
2022-08-17T20:13:06.212Z,0.00
2022-08-17T20:14:06.227Z,0.00
2022-08-17T20:15:06.214Z,0.00
2022-08-17T20:16:06.185Z,0.00
2022-08-17T20:17:06.177Z,0.00
2022-08-17T20:18:06.154Z,0.00
2022-08-17T20:19:06.148Z,0.00
2022-08-17T20:20:06.150Z,0.00
2022-08-17T20:21:06.125Z,0.00
2022-08-17T20:22:06.144Z,0.00
2022-08-17T20:23:06.105Z,0.00
2022-08-17T20:24:06.398Z,0.00
2022-08-17T20:25:06.086Z,0.00
2022-08-17T20:26:06.102Z,0.00
2022-08-17T20:27:06.057Z,0.00
2022-08-17T20:28:06.837Z,0.00
2022-08-17T20:29:06.037Z,0.00
2022-08-17T20:30:06.381Z,0.00
2022-08-17T20:31:06.010Z,0.00
2022-08-17T20:32:06.105Z,0.00
2022-08-17T20:33:05.989Z,0.00
2022-08-17T20:34:06.016Z,0.00
2022-08-17T20:35:05.981Z,0.00
2022-08-17T20:36:05.998Z,0.00
2022-08-17T20:37:05.953Z,0.00
2022-08-17T20:38:05.995Z,0.00
2022-08-17T20:39:05.921Z,0.00
2022-08-17T20:40:06.069Z,0.00
2022-08-17T20:41:07.429Z,0.00
2022-08-17T20:42:05.896Z,0.00
2022-08-17T20:43:05.874Z,0.00
2022-08-17T20:44:05.921Z,0.00
2022-08-17T20:45:05.872Z,0.00
2022-08-17T20:46:05.873Z,0.00
2022-08-17T20:47:05.838Z,0.00
2022-08-17T20:48:33.318Z,0.00
2022-08-17T20:49:06.813Z,0.00
2022-08-17T20:50:05.808Z,0.00
2022-08-17T20:51:05.797Z,0.00
2022-08-17T20:52:05.774Z,0.00
2022-08-17T20:53:05.766Z,0.00
2022-08-17T20:54:05.768Z,0.00
2022-08-17T20:55:05.761Z,0.00
2022-08-17T20:56:05.729Z,0.00
2022-08-17T20:57:06.110Z,0.00
2022-08-17T20:58:06.799Z,0.00
2022-08-17T20:59:05.699Z,0.00
2022-08-17T21:00:05.899Z,0.00
2022-08-17T21:01:05.732Z,0.00
2022-08-17T21:02:05.669Z,0.00
2022-08-17T21:03:05.798Z,0.00
2022-08-17T21:04:06.849Z,0.00
2022-08-17T21:05:07.279Z,0.00
2022-08-17T21:06:14.440Z,0.00
2022-08-17T21:07:06.612Z,0.00
2022-08-17T21:08:05.608Z,0.00
2022-08-17T21:09:05.592Z,0.00
2022-08-17T21:10:05.602Z,0.00
2022-08-17T21:11:05.569Z,0.00
2022-08-17T21:12:05.813Z,0.00
2022-08-17T21:13:05.543Z,0.00
2022-08-17T21:14:05.541Z,0.00
2022-08-17T21:15:05.536Z,0.00
2022-08-17T21:16:05.514Z,0.00
2022-08-17T21:17:05.506Z,0.00
2022-08-17T21:18:05.579Z,0.00
2022-08-17T21:19:06.942Z,0.00
2022-08-17T21:20:11.485Z,0.00
2022-08-17T21:21:06.470Z,0.00
2022-08-17T21:22:05.521Z,0.00
2022-08-17T21:23:05.440Z,0.00
2022-08-17T21:24:05.437Z,0.00
2022-08-17T21:25:05.419Z,0.00
2022-08-17T21:26:05.439Z,0.00
2022-08-17T21:27:05.449Z,0.00
2022-08-17T21:28:05.387Z,0.00